LATI

Tirana International Mother Teresa Airport

Tirana, Albania
TAF LATI 221700Z 2218/2318 VRB04KT 9999 FEW050 SCT100 TEMPO 2307/2318 24010KT 9999 -RA FEW030CB SCT070 TEMPO 2310/2316 VRB10G20KT 4000 TSRA SCT025CB BKN050
Issued Valid From Valid To
Jul-22 @ 17:00 UTC
(3 hours ago)
Jul-22 @ 18:00 UTC
(2 hours ago)
Jul-23 @ 18:00 UTC
(in 22 hours)
Jul-22 @ 18:00 to Jul-23 @ 18:00
TAF LATI 221700Z 2218/2318 VRB04KT 9999 FEW050 SCT100
Wind Visibility Clouds
Variable at 4 knots 10,000+ meters
  • Few at 5,000' AGL
  • Scattered at 10,000' AGL
Temporary Jul-23 @ 07:00 to Jul-23 @ 18:00
TEMPO 2307/2318 24010KT 9999 -RA FEW030CB SCT070
Wind Visibility Clouds Conditions
240° at 10 knots 10,000+ meters
  • Few at 3,000' AGL
  • Scattered at 7,000' AGL
  • Light Rain
Temporary Jul-23 @ 10:00 to Jul-23 @ 16:00
TEMPO 2310/2316 VRB10G20KT 4000 TSRA SCT025CB BKN050
Wind Visibility Clouds Conditions
Variable at 10 knots
 Gusting to 20 knots
4,007 meters
  • Scattered at 2,500' AGL
  • Broken at 5,000' AGL
  • Thunderstorm
  • Rain
TAF LATI 221700Z 2218/2318 VRB04KT 9999 FEW050 SCT100 TEMPO 2307/2318 24010KT 9999 -RA FEW030CB SCT070 TEMPO 2310/2316 VRB10G20KT 4000 TSRA SCT025CB BKN050
Issued Jul-22 @ 17:00 UTC
(3 hours ago)
Valid From Jul-22 @ 18:00 UTC
(2 hours ago)
Valid To Jul-23 @ 18:00 UTC
(in 22 hours)
Jul-22 @ 18:00 - Jul-23 @ 18:00
Wind Visibility
Variable at 4 knots 10,000+ meters
Clouds
  • Few at 5,000' AGL
  • Scattered at 10,000' AGL
Temporary Jul-23 @ 07:00 - Jul-23 @ 18:00
Wind Visibility
240° at 10 knots 10,000+ meters
Clouds
  • Few at 3,000' AGL
  • Scattered at 7,000' AGL
Conditions
  • Light Rain
Temporary Jul-23 @ 10:00 - Jul-23 @ 16:00
Wind Visibility
Variable at 10 knots
 Gusting to 20 knots
4,007 meters
Clouds
  • Scattered at 2,500' AGL
  • Broken at 5,000' AGL
Conditions
  • Thunderstorm
  • Rain